sensor_id;sensor_type;location;lat;lon;timestamp;temperature;humidity
12841;DHT22;6487;48.626;12.486;2023-03-05T00:01:33;2.70;98.50
12841;DHT22;6487;48.626;12.486;2023-03-05T00:04:03;2.70;98.70
12841;DHT22;6487;48.626;12.486;2023-03-05T00:06:32;2.80;98.50
12841;DHT22;6487;48.626;12.486;2023-03-05T00:09:01;2.80;98.50
12841;DHT22;6487;48.626;12.486;2023-03-05T00:11:30;2.80;98.60
12841;DHT22;6487;48.626;12.486;2023-03-05T00:14:00;2.80;98.50
12841;DHT22;6487;48.626;12.486;2023-03-05T00:16:32;2.90;98.50
12841;DHT22;6487;48.626;12.486;2023-03-05T00:19:01;2.90;98.50
12841;DHT22;6487;48.626;12.486;2023-03-05T00:21:31;2.90;98.50
12841;DHT22;6487;48.626;12.486;2023-03-05T00:24:02;2.90;98.60
12841;DHT22;6487;48.626;12.486;2023-03-05T00:26:34;2.80;98.70
12841;DHT22;6487;48.626;12.486;2023-03-05T00:29:05;2.90;98.70
12841;DHT22;6487;48.626;12.486;2023-03-05T00:31:37;2.90;98.70
12841;DHT22;6487;48.626;12.486;2023-03-05T00:34:07;3.00;98.50
12841;DHT22;6487;48.626;12.486;2023-03-05T00:36:39;3.00;98.60
12841;DHT22;6487;48.626;12.486;2023-03-05T00:39:07;3.00;98.60
12841;DHT22;6487;48.626;12.486;2023-03-05T00:41:36;3.00;98.50
12841;DHT22;6487;48.626;12.486;2023-03-05T00:44:05;3.10;98.40
12841;DHT22;6487;48.626;12.486;2023-03-05T00:46:36;3.10;98.40
12841;DHT22;6487;48.626;12.486;2023-03-05T00:49:06;3.10;98.60
12841;DHT22;6487;48.626;12.486;2023-03-05T00:51:34;3.10;98.40
12841;DHT22;6487;48.626;12.486;2023-03-05T00:54:03;2.90;98.90
12841;DHT22;6487;48.626;12.486;2023-03-05T00:56:32;3.00;98.90
12841;DHT22;6487;48.626;12.486;2023-03-05T00:59:01;3.00;98.80
12841;DHT22;6487;48.626;12.486;2023-03-05T01:01:30;3.00;98.70
12841;DHT22;6487;48.626;12.486;2023-03-05T01:04:00;2.80;98.70
12841;DHT22;6487;48.626;12.486;2023-03-05T01:06:28;2.80;99.00
12841;DHT22;6487;48.626;12.486;2023-03-05T01:08:57;2.80;98.60
12841;DHT22;6487;48.626;12.486;2023-03-05T01:11:25;2.80;98.90
12841;DHT22;6487;48.626;12.486;2023-03-05T01:13:53;2.90;99.00
12841;DHT22;6487;48.626;12.486;2023-03-05T01:16:22;3.00;98.90
12841;DHT22;6487;48.626;12.486;2023-03-05T01:18:50;3.00;98.70
12841;DHT22;6487;48.626;12.486;2023-03-05T01:21:20;3.00;98.80
12841;DHT22;6487;48.626;12.486;2023-03-05T01:23:48;2.90;98.90
12841;DHT22;6487;48.626;12.486;2023-03-05T01:26:17;3.00;98.80
12841;DHT22;6487;48.626;12.486;2023-03-05T01:28:45;2.90;98.50
12841;DHT22;6487;48.626;12.486;2023-03-05T01:31:13;3.10;98.70
12841;DHT22;6487;48.626;12.486;2023-03-05T01:33:42;3.10;98.70
12841;DHT22;6487;48.626;12.486;2023-03-05T01:36:12;3.10;98.70
12841;DHT22;6487;48.626;12.486;2023-03-05T01:38:45;3.00;98.70
12841;DHT22;6487;48.626;12.486;2023-03-05T01:41:15;3.10;98.70
12841;DHT22;6487;48.626;12.486;2023-03-05T01:43:45;3.00;98.70
12841;DHT22;6487;48.626;12.486;2023-03-05T01:46:28;2.80;98.50
12841;DHT22;6487;48.626;12.486;2023-03-05T01:49:08;2.80;98.90
12841;DHT22;6487;48.626;12.486;2023-03-05T01:51:41;2.90;98.70
12841;DHT22;6487;48.626;12.486;2023-03-05T01:54:18;2.90;98.70
12841;DHT22;6487;48.626;12.486;2023-03-05T01:56:49;2.90;98.70
12841;DHT22;6487;48.626;12.486;2023-03-05T01:59:18;2.90;98.70
12841;DHT22;6487;48.626;12.486;2023-03-05T02:01:50;3.00;98.60
12841;DHT22;6487;48.626;12.486;2023-03-05T02:04:24;3.00;98.40
12841;DHT22;6487;48.626;12.486;2023-03-05T02:06:56;3.00;98.50
12841;DHT22;6487;48.626;12.486;2023-03-05T02:09:27;3.00;98.50
12841;DHT22;6487;48.626;12.486;2023-03-05T02:11:56;3.10;98.40
12841;DHT22;6487;48.626;12.486;2023-03-05T02:14:25;2.90;98.50
12841;DHT22;6487;48.626;12.486;2023-03-05T02:16:53;2.90;98.60
12841;DHT22;6487;48.626;12.486;2023-03-05T02:19:22;3.00;98.70
12841;DHT22;6487;48.626;12.486;2023-03-05T02:21:52;3.00;98.50
12841;DHT22;6487;48.626;12.486;2023-03-05T02:24:33;3.00;98.40
12841;DHT22;6487;48.626;12.486;2023-03-05T02:27:03;2.90;98.50
12841;DHT22;6487;48.626;12.486;2023-03-05T02:29:32;2.90;98.50
12841;DHT22;6487;48.626;12.486;2023-03-05T02:32:01;2.90;98.80
12841;DHT22;6487;48.626;12.486;2023-03-05T02:34:29;2.90;98.60
12841;DHT22;6487;48.626;12.486;2023-03-05T02:36:59;3.00;98.80
12841;DHT22;6487;48.626;12.486;2023-03-05T02:39:30;3.00;98.80
12841;DHT22;6487;48.626;12.486;2023-03-05T02:41:59;2.90;98.70
12841;DHT22;6487;48.626;12.486;2023-03-05T02:44:27;2.90;98.90
12841;DHT22;6487;48.626;12.486;2023-03-05T02:46:56;3.00;99.00
12841;DHT22;6487;48.626;12.486;2023-03-05T02:49:24;3.00;99.00
12841;DHT22;6487;48.626;12.486;2023-03-05T02:51:52;3.00;99.00
12841;DHT22;6487;48.626;12.486;2023-03-05T02:54:22;3.00;99.10
12841;DHT22;6487;48.626;12.486;2023-03-05T02:56:50;2.90;99.30
12841;DHT22;6487;48.626;12.486;2023-03-05T02:59:19;2.90;99.40
12841;DHT22;6487;48.626;12.486;2023-03-05T03:01:47;3.00;99.20
12841;DHT22;6487;48.626;12.486;2023-03-05T03:04:15;2.90;99.30
12841;DHT22;6487;48.626;12.486;2023-03-05T03:06:43;2.90;99.40
12841;DHT22;6487;48.626;12.486;2023-03-05T03:09:12;3.00;99.40
12841;DHT22;6487;48.626;12.486;2023-03-05T03:11:41;3.00;99.30
12841;DHT22;6487;48.626;12.486;2023-03-05T03:14:09;3.00;99.30
12841;DHT22;6487;48.626;12.486;2023-03-05T03:16:38;3.10;99.30
12841;DHT22;6487;48.626;12.486;2023-03-05T03:19:06;3.00;99.20
12841;DHT22;6487;48.626;12.486;2023-03-05T03:21:34;3.00;99.20
12841;DHT22;6487;48.626;12.486;2023-03-05T03:24:03;3.00;99.50
12841;DHT22;6487;48.626;12.486;2023-03-05T03:26:32;2.90;99.40
12841;DHT22;6487;48.626;12.486;2023-03-05T03:29:02;2.90;99.50
12841;DHT22;6487;48.626;12.486;2023-03-05T03:31:30;2.80;99.60
12841;DHT22;6487;48.626;12.486;2023-03-05T03:33:58;2.90;99.60
12841;DHT22;6487;48.626;12.486;2023-03-05T03:36:26;2.90;99.70
12841;DHT22;6487;48.626;12.486;2023-03-05T03:38:55;2.80;99.60
12841;DHT22;6487;48.626;12.486;2023-03-05T03:41:23;2.90;99.70
12841;DHT22;6487;48.626;12.486;2023-03-05T03:43:51;2.90;99.60
12841;DHT22;6487;48.626;12.486;2023-03-05T03:46:21;2.90;99.30
12841;DHT22;6487;48.626;12.486;2023-03-05T03:48:49;2.90;99.30
12841;DHT22;6487;48.626;12.486;2023-03-05T03:51:18;2.90;99.40
12841;DHT22;6487;48.626;12.486;2023-03-05T03:53:46;2.90;99.30
12841;DHT22;6487;48.626;12.486;2023-03-05T03:56:15;2.90;99.50
12841;DHT22;6487;48.626;12.486;2023-03-05T03:58:43;2.90;99.40
12841;DHT22;6487;48.626;12.486;2023-03-05T04:01:11;2.90;99.40
12841;DHT22;6487;48.626;12.486;2023-03-05T04:03:41;2.90;99.50
12841;DHT22;6487;48.626;12.486;2023-03-05T04:06:09;2.90;99.40
12841;DHT22;6487;48.626;12.486;2023-03-05T04:08:38;2.80;99.40
12841;DHT22;6487;48.626;12.486;2023-03-05T04:11:06;2.80;99.20
12841;DHT22;6487;48.626;12.486;2023-03-05T04:13:35;2.80;99.50
12841;DHT22;6487;48.626;12.486;2023-03-05T04:16:04;2.70;99.60
12841;DHT22;6487;48.626;12.486;2023-03-05T04:18:33;2.50;99.90
12841;DHT22;6487;48.626;12.486;2023-03-05T04:21:02;2.60;99.80
12841;DHT22;6487;48.626;12.486;2023-03-05T04:23:31;2.70;99.70
12841;DHT22;6487;48.626;12.486;2023-03-05T04:26:00;2.70;99.90
12841;DHT22;6487;48.626;12.486;2023-03-05T04:28:28;2.70;99.90
12841;DHT22;6487;48.626;12.486;2023-03-05T04:30:57;2.70;99.80
12841;DHT22;6487;48.626;12.486;2023-03-05T04:33:25;2.70;99.90
12841;DHT22;6487;48.626;12.486;2023-03-05T04:35:53;2.70;99.90
12841;DHT22;6487;48.626;12.486;2023-03-05T04:38:23;2.70;99.90
12841;DHT22;6487;48.626;12.486;2023-03-05T04:40:54;2.50;99.90
12841;DHT22;6487;48.626;12.486;2023-03-05T04:43:22;2.50;99.90
12841;DHT22;6487;48.626;12.486;2023-03-05T04:45:51;2.60;99.90
12841;DHT22;6487;48.626;12.486;2023-03-05T04:48:19;2.70;99.90
12841;DHT22;6487;48.626;12.486;2023-03-05T04:50:47;2.70;99.90
12841;DHT22;6487;48.626;12.486;2023-03-05T04:53:16;2.70;99.90
12841;DHT22;6487;48.626;12.486;2023-03-05T04:55:45;2.60;99.90
12841;DHT22;6487;48.626;12.486;2023-03-05T04:58:19;2.70;99.90
12841;DHT22;6487;48.626;12.486;2023-03-05T05:00:47;2.70;99.90
12841;DHT22;6487;48.626;12.486;2023-03-05T05:03:16;2.70;99.90
12841;DHT22;6487;48.626;12.486;2023-03-05T05:05:44;2.50;99.90
12841;DHT22;6487;48.626;12.486;2023-03-05T05:08:12;2.60;99.90
12841;DHT22;6487;48.626;12.486;2023-03-05T05:10:41;2.70;99.90
12841;DHT22;6487;48.626;12.486;2023-03-05T05:13:10;2.70;99.90
12841;DHT22;6487;48.626;12.486;2023-03-05T05:15:39;2.80;99.90
12841;DHT22;6487;48.626;12.486;2023-03-05T05:18:07;2.80;99.90
12841;DHT22;6487;48.626;12.486;2023-03-05T05:20:37;2.80;99.90
12841;DHT22;6487;48.626;12.486;2023-03-05T05:23:05;2.80;99.90
12841;DHT22;6487;48.626;12.486;2023-03-05T05:25:34;2.80;99.90
12841;DHT22;6487;48.626;12.486;2023-03-05T05:28:02;2.80;99.90
12841;DHT22;6487;48.626;12.486;2023-03-05T05:30:32;2.70;99.90
12841;DHT22;6487;48.626;12.486;2023-03-05T05:33:00;2.60;99.90
12841;DHT22;6487;48.626;12.486;2023-03-05T05:35:29;2.60;99.90
12841;DHT22;6487;48.626;12.486;2023-03-05T05:37:57;2.80;99.90
12841;DHT22;6487;48.626;12.486;2023-03-05T05:40:25;2.70;99.90
12841;DHT22;6487;48.626;12.486;2023-03-05T05:42:53;2.70;99.90
12841;DHT22;6487;48.626;12.486;2023-03-05T05:45:22;2.60;99.90
12841;DHT22;6487;48.626;12.486;2023-03-05T05:47:52;2.60;99.90
12841;DHT22;6487;48.626;12.486;2023-03-05T05:50:20;2.60;99.90
12841;DHT22;6487;48.626;12.486;2023-03-05T05:52:50;2.80;99.90
12841;DHT22;6487;48.626;12.486;2023-03-05T05:55:18;2.60;99.90
12841;DHT22;6487;48.626;12.486;2023-03-05T05:57:46;2.60;99.90
12841;DHT22;6487;48.626;12.486;2023-03-05T06:00:15;2.60;99.90
12841;DHT22;6487;48.626;12.486;2023-03-05T06:02:44;2.60;99.90
12841;DHT22;6487;48.626;12.486;2023-03-05T06:05:14;2.70;99.90
12841;DHT22;6487;48.626;12.486;2023-03-05T06:07:42;2.80;99.90
12841;DHT22;6487;48.626;12.486;2023-03-05T06:10:11;2.80;99.90
12841;DHT22;6487;48.626;12.486;2023-03-05T06:12:39;2.80;99.90
12841;DHT22;6487;48.626;12.486;2023-03-05T06:15:08;2.80;99.90
12841;DHT22;6487;48.626;12.486;2023-03-05T06:17:37;2.90;99.90
12841;DHT22;6487;48.626;12.486;2023-03-05T06:20:07;2.90;99.90
12841;DHT22;6487;48.626;12.486;2023-03-05T06:22:37;2.90;99.90
12841;DHT22;6487;48.626;12.486;2023-03-05T06:25:07;2.90;99.90
12841;DHT22;6487;48.626;12.486;2023-03-05T06:27:38;2.90;99.90
12841;DHT22;6487;48.626;12.486;2023-03-05T06:30:09;2.90;99.90
12841;DHT22;6487;48.626;12.486;2023-03-05T06:32:38;2.90;99.90
12841;DHT22;6487;48.626;12.486;2023-03-05T06:35:07;2.90;99.90
12841;DHT22;6487;48.626;12.486;2023-03-05T06:37:37;2.90;99.90
12841;DHT22;6487;48.626;12.486;2023-03-05T06:40:06;2.90;99.90
12841;DHT22;6487;48.626;12.486;2023-03-05T06:42:35;2.90;99.90
12841;DHT22;6487;48.626;12.486;2023-03-05T06:45:05;2.90;99.90
12841;DHT22;6487;48.626;12.486;2023-03-05T06:47:34;2.90;99.90
12841;DHT22;6487;48.626;12.486;2023-03-05T06:50:03;2.80;99.90
12841;DHT22;6487;48.626;12.486;2023-03-05T06:52:31;2.90;99.90
12841;DHT22;6487;48.626;12.486;2023-03-05T06:55:01;3.10;99.90
12841;DHT22;6487;48.626;12.486;2023-03-05T06:57:30;3.00;99.90
12841;DHT22;6487;48.626;12.486;2023-03-05T06:59:58;3.00;99.90
12841;DHT22;6487;48.626;12.486;2023-03-05T07:02:26;3.00;99.90
12841;DHT22;6487;48.626;12.486;2023-03-05T07:04:55;3.00;99.90
12841;DHT22;6487;48.626;12.486;2023-03-05T07:07:23;3.00;99.90
12841;DHT22;6487;48.626;12.486;2023-03-05T07:09:51;2.90;99.90
12841;DHT22;6487;48.626;12.486;2023-03-05T07:12:21;2.90;99.90
12841;DHT22;6487;48.626;12.486;2023-03-05T07:14:49;3.00;99.90
12841;DHT22;6487;48.626;12.486;2023-03-05T07:17:17;3.00;99.90
12841;DHT22;6487;48.626;12.486;2023-03-05T07:19:46;2.90;99.90
12841;DHT22;6487;48.626;12.486;2023-03-05T07:22:14;3.10;99.90
12841;DHT22;6487;48.626;12.486;2023-03-05T07:24:42;3.20;99.90
12841;DHT22;6487;48.626;12.486;2023-03-05T07:27:10;2.80;99.90
12841;DHT22;6487;48.626;12.486;2023-03-05T07:29:40;2.90;99.90
12841;DHT22;6487;48.626;12.486;2023-03-05T07:32:08;3.00;99.90
12841;DHT22;6487;48.626;12.486;2023-03-05T07:34:37;3.00;99.90
12841;DHT22;6487;48.626;12.486;2023-03-05T07:37:05;3.10;99.90
12841;DHT22;6487;48.626;12.486;2023-03-05T07:39:33;3.00;99.90
12841;DHT22;6487;48.626;12.486;2023-03-05T07:42:02;3.00;99.90
12841;DHT22;6487;48.626;12.486;2023-03-05T07:44:30;3.10;99.90
12841;DHT22;6487;48.626;12.486;2023-03-05T07:47:00;3.10;99.90
12841;DHT22;6487;48.626;12.486;2023-03-05T07:49:28;3.10;99.90
12841;DHT22;6487;48.626;12.486;2023-03-05T07:51:56;3.20;99.90
12841;DHT22;6487;48.626;12.486;2023-03-05T07:54:25;3.20;99.90
12841;DHT22;6487;48.626;12.486;2023-03-05T07:56:53;3.20;99.90
12841;DHT22;6487;48.626;12.486;2023-03-05T07:59:22;3.20;99.90
12841;DHT22;6487;48.626;12.486;2023-03-05T08:01:50;3.20;99.90
12841;DHT22;6487;48.626;12.486;2023-03-05T08:04:19;3.20;99.90
12841;DHT22;6487;48.626;12.486;2023-03-05T08:06:48;3.40;99.90
12841;DHT22;6487;48.626;12.486;2023-03-05T08:09:16;3.40;99.90
12841;DHT22;6487;48.626;12.486;2023-03-05T08:11:45;3.50;99.90
12841;DHT22;6487;48.626;12.486;2023-03-05T08:14:13;3.60;99.90
12841;DHT22;6487;48.626;12.486;2023-03-05T08:16:42;3.50;99.90
12841;DHT22;6487;48.626;12.486;2023-03-05T08:19:13;3.50;99.90
12841;DHT22;6487;48.626;12.486;2023-03-05T08:21:43;3.40;99.90
12841;DHT22;6487;48.626;12.486;2023-03-05T08:24:12;3.50;99.90
12841;DHT22;6487;48.626;12.486;2023-03-05T08:26:41;3.40;99.90
12841;DHT22;6487;48.626;12.486;2023-03-05T08:29:09;3.40;99.90
12841;DHT22;6487;48.626;12.486;2023-03-05T08:31:38;3.50;99.90
12841;DHT22;6487;48.626;12.486;2023-03-05T08:34:07;3.40;99.90
12841;DHT22;6487;48.626;12.486;2023-03-05T08:36:35;3.50;99.90
12841;DHT22;6487;48.626;12.486;2023-03-05T08:39:05;3.50;99.90
12841;DHT22;6487;48.626;12.486;2023-03-05T08:41:34;3.50;99.90
12841;DHT22;6487;48.626;12.486;2023-03-05T08:44:03;3.50;99.90
12841;DHT22;6487;48.626;12.486;2023-03-05T08:46:31;3.50;99.90
12841;DHT22;6487;48.626;12.486;2023-03-05T08:49:00;3.60;99.90
12841;DHT22;6487;48.626;12.486;2023-03-05T08:51:28;3.70;99.90
12841;DHT22;6487;48.626;12.486;2023-03-05T08:53:58;3.70;99.90
12841;DHT22;6487;48.626;12.486;2023-03-05T08:56:28;3.70;99.90
12841;DHT22;6487;48.626;12.486;2023-03-05T08:58:57;3.60;99.90
12841;DHT22;6487;48.626;12.486;2023-03-05T09:01:25;3.70;99.90
12841;DHT22;6487;48.626;12.486;2023-03-05T09:03:54;3.70;99.90
12841;DHT22;6487;48.626;12.486;2023-03-05T09:06:22;3.80;99.90
12841;DHT22;6487;48.626;12.486;2023-03-05T09:08:50;3.80;99.90
12841;DHT22;6487;48.626;12.486;2023-03-05T09:11:19;3.80;99.90
12841;DHT22;6487;48.626;12.486;2023-03-05T09:13:49;3.80;99.50
12841;DHT22;6487;48.626;12.486;2023-03-05T09:16:18;3.70;99.60
12841;DHT22;6487;48.626;12.486;2023-03-05T09:18:47;3.80;99.80
12841;DHT22;6487;48.626;12.486;2023-03-05T09:21:17;3.70;99.70
12841;DHT22;6487;48.626;12.486;2023-03-05T09:23:45;3.80;99.90
12841;DHT22;6487;48.626;12.486;2023-03-05T09:26:14;3.80;99.40
12841;DHT22;6487;48.626;12.486;2023-03-05T09:28:45;3.90;99.80
12841;DHT22;6487;48.626;12.486;2023-03-05T09:31:16;4.00;99.50
12841;DHT22;6487;48.626;12.486;2023-03-05T09:33:45;4.00;99.40
12841;DHT22;6487;48.626;12.486;2023-03-05T09:36:17;4.00;99.40
12841;DHT22;6487;48.626;12.486;2023-03-05T09:38:47;4.10;99.60
12841;DHT22;6487;48.626;12.486;2023-03-05T09:41:20;4.00;99.70
12841;DHT22;6487;48.626;12.486;2023-03-05T09:44:04;4.10;99.20
12841;DHT22;6487;48.626;12.486;2023-03-05T09:46:47;4.00;99.20
12841;DHT22;6487;48.626;12.486;2023-03-05T09:49:29;4.00;99.30
12841;DHT22;6487;48.626;12.486;2023-03-05T09:52:04;4.00;99.30
12841;DHT22;6487;48.626;12.486;2023-03-05T09:54:37;4.00;99.10
12841;DHT22;6487;48.626;12.486;2023-03-05T09:57:14;4.00;99.20
12841;DHT22;6487;48.626;12.486;2023-03-05T09:59:47;4.10;99.30
12841;DHT22;6487;48.626;12.486;2023-03-05T10:02:23;4.10;99.30
12841;DHT22;6487;48.626;12.486;2023-03-05T10:04:59;4.20;99.20
12841;DHT22;6487;48.626;12.486;2023-03-05T10:07:32;4.30;99.30
12841;DHT22;6487;48.626;12.486;2023-03-05T10:10:04;4.40;99.40
12841;DHT22;6487;48.626;12.486;2023-03-05T10:12:39;4.30;99.30
12841;DHT22;6487;48.626;12.486;2023-03-05T10:15:13;4.30;99.40
12841;DHT22;6487;48.626;12.486;2023-03-05T10:17:57;4.40;99.30
12841;DHT22;6487;48.626;12.486;2023-03-05T10:23:36;4.40;99.00
12841;DHT22;6487;48.626;12.486;2023-03-05T10:26:19;4.50;98.90
12841;DHT22;6487;48.626;12.486;2023-03-05T10:29:03;4.50;99.10
12841;DHT22;6487;48.626;12.486;2023-03-05T10:31:55;4.60;99.00
12841;DHT22;6487;48.626;12.486;2023-03-05T10:37:51;4.60;99.30
12841;DHT22;6487;48.626;12.486;2023-03-05T10:40:29;4.70;99.20
12841;DHT22;6487;48.626;12.486;2023-03-05T10:43:06;4.70;99.30
12841;DHT22;6487;48.626;12.486;2023-03-05T10:45:43;4.70;98.90
12841;DHT22;6487;48.626;12.486;2023-03-05T10:48:17;4.70;98.80
12841;DHT22;6487;48.626;12.486;2023-03-05T10:50:56;4.70;98.80
12841;DHT22;6487;48.626;12.486;2023-03-05T10:53:31;4.60;99.00
12841;DHT22;6487;48.626;12.486;2023-03-05T10:56:03;4.60;99.00
12841;DHT22;6487;48.626;12.486;2023-03-05T10:58:32;4.60;98.70
12841;DHT22;6487;48.626;12.486;2023-03-05T11:01:03;4.50;98.60
12841;DHT22;6487;48.626;12.486;2023-03-05T11:03:49;4.50;98.90
12841;DHT22;6487;48.626;12.486;2023-03-05T11:06:28;4.60;98.60
12841;DHT22;6487;48.626;12.486;2023-03-05T11:09:18;4.50;98.90
12841;DHT22;6487;48.626;12.486;2023-03-05T11:12:12;4.50;99.00
12841;DHT22;6487;48.626;12.486;2023-03-05T11:14:43;4.50;99.20
12841;DHT22;6487;48.626;12.486;2023-03-05T11:17:29;4.60;99.40
12841;DHT22;6487;48.626;12.486;2023-03-05T11:20:31;4.70;99.40
12841;DHT22;6487;48.626;12.486;2023-03-05T11:23:13;4.80;99.70
12841;DHT22;6487;48.626;12.486;2023-03-05T11:25:57;4.70;99.50
12841;DHT22;6487;48.626;12.486;2023-03-05T11:28:30;4.80;99.50
12841;DHT22;6487;48.626;12.486;2023-03-05T11:31:04;4.80;99.60
12841;DHT22;6487;48.626;12.486;2023-03-05T11:33:36;4.80;99.40
12841;DHT22;6487;48.626;12.486;2023-03-05T11:36:20;4.90;99.40
12841;DHT22;6487;48.626;12.486;2023-03-05T11:39:01;4.90;99.50
12841;DHT22;6487;48.626;12.486;2023-03-05T11:41:39;4.90;99.40
12841;DHT22;6487;48.626;12.486;2023-03-05T11:44:12;4.90;99.40
12841;DHT22;6487;48.626;12.486;2023-03-05T11:46:45;5.00;99.30
12841;DHT22;6487;48.626;12.486;2023-03-05T11:49:17;5.10;99.40
12841;DHT22;6487;48.626;12.486;2023-03-05T11:51:55;5.00;99.00
12841;DHT22;6487;48.626;12.486;2023-03-05T11:54:32;5.10;99.20
12841;DHT22;6487;48.626;12.486;2023-03-05T11:57:05;5.10;99.40
12841;DHT22;6487;48.626;12.486;2023-03-05T11:59:36;4.80;99.00
12841;DHT22;6487;48.626;12.486;2023-03-05T12:02:15;4.90;99.40
12841;DHT22;6487;48.626;12.486;2023-03-05T12:04:46;4.90;99.10
12841;DHT22;6487;48.626;12.486;2023-03-05T12:07:17;5.00;99.10
12841;DHT22;6487;48.626;12.486;2023-03-05T12:09:51;4.80;99.00
12841;DHT22;6487;48.626;12.486;2023-03-05T12:12:42;4.80;99.20
12841;DHT22;6487;48.626;12.486;2023-03-05T12:15:44;4.80;99.10
12841;DHT22;6487;48.626;12.486;2023-03-05T12:18:23;4.80;98.90
12841;DHT22;6487;48.626;12.486;2023-03-05T12:21:03;4.80;98.70
12841;DHT22;6487;48.626;12.486;2023-03-05T12:23:45;4.80;98.60
12841;DHT22;6487;48.626;12.486;2023-03-05T12:26:16;4.70;98.50
12841;DHT22;6487;48.626;12.486;2023-03-05T12:28:54;4.70;98.70
12841;DHT22;6487;48.626;12.486;2023-03-05T12:31:37;4.80;98.60
12841;DHT22;6487;48.626;12.486;2023-03-05T12:40:51;4.90;98.70
12841;DHT22;6487;48.626;12.486;2023-03-05T12:43:32;4.80;98.90
12841;DHT22;6487;48.626;12.486;2023-03-05T12:46:21;5.00;98.40
12841;DHT22;6487;48.626;12.486;2023-03-05T12:48:51;5.10;98.50
12841;DHT22;6487;48.626;12.486;2023-03-05T12:51:34;4.90;98.60
12841;DHT22;6487;48.626;12.486;2023-03-05T12:54:30;5.10;98.20
12841;DHT22;6487;48.626;12.486;2023-03-05T12:57:00;5.10;98.20
12841;DHT22;6487;48.626;12.486;2023-03-05T12:59:39;5.00;98.00
12841;DHT22;6487;48.626;12.486;2023-03-05T13:02:22;5.10;97.90
12841;DHT22;6487;48.626;12.486;2023-03-05T13:04:57;5.10;97.60
12841;DHT22;6487;48.626;12.486;2023-03-05T13:07:27;5.00;97.70
12841;DHT22;6487;48.626;12.486;2023-03-05T13:09:57;4.90;97.90
12841;DHT22;6487;48.626;12.486;2023-03-05T13:12:28;4.90;97.60
12841;DHT22;6487;48.626;12.486;2023-03-05T13:15:00;4.90;97.80
12841;DHT22;6487;48.626;12.486;2023-03-05T13:17:33;4.90;97.90
12841;DHT22;6487;48.626;12.486;2023-03-05T13:20:24;4.90;97.40
12841;DHT22;6487;48.626;12.486;2023-03-05T13:23:17;5.00;97.60
12841;DHT22;6487;48.626;12.486;2023-03-05T13:26:00;5.10;97.30
12841;DHT22;6487;48.626;12.486;2023-03-05T13:28:30;5.10;97.20
12841;DHT22;6487;48.626;12.486;2023-03-05T13:31:03;5.10;97.20
12841;DHT22;6487;48.626;12.486;2023-03-05T13:33:39;5.10;97.10
12841;DHT22;6487;48.626;12.486;2023-03-05T13:36:13;5.10;97.30
12841;DHT22;6487;48.626;12.486;2023-03-05T13:38:44;5.20;97.20
12841;DHT22;6487;48.626;12.486;2023-03-05T13:41:19;5.10;96.70
12841;DHT22;6487;48.626;12.486;2023-03-05T13:43:50;5.20;97.00
12841;DHT22;6487;48.626;12.486;2023-03-05T13:46:29;5.20;97.00
12841;DHT22;6487;48.626;12.486;2023-03-05T13:49:17;5.10;96.70
12841;DHT22;6487;48.626;12.486;2023-03-05T13:51:55;5.20;96.80
12841;DHT22;6487;48.626;12.486;2023-03-05T13:54:26;5.20;96.70
12841;DHT22;6487;48.626;12.486;2023-03-05T13:56:56;5.30;96.30
12841;DHT22;6487;48.626;12.486;2023-03-05T13:59:28;5.30;96.50
12841;DHT22;6487;48.626;12.486;2023-03-05T14:01:59;5.30;96.70
12841;DHT22;6487;48.626;12.486;2023-03-05T14:04:29;5.40;96.40
12841;DHT22;6487;48.626;12.486;2023-03-05T14:07:04;5.30;96.10
12841;DHT22;6487;48.626;12.486;2023-03-05T14:09:43;5.30;96.00
12841;DHT22;6487;48.626;12.486;2023-03-05T14:12:23;5.20;95.40
12841;DHT22;6487;48.626;12.486;2023-03-05T14:14:56;5.20;95.90
12841;DHT22;6487;48.626;12.486;2023-03-05T14:17:36;5.30;96.10
12841;DHT22;6487;48.626;12.486;2023-03-05T14:23:00;5.40;96.20
12841;DHT22;6487;48.626;12.486;2023-03-05T14:25:35;5.40;95.90
12841;DHT22;6487;48.626;12.486;2023-03-05T14:28:18;5.30;95.90
12841;DHT22;6487;48.626;12.486;2023-03-05T14:30:52;5.30;95.70
12841;DHT22;6487;48.626;12.486;2023-03-05T14:33:26;5.20;96.10
12841;DHT22;6487;48.626;12.486;2023-03-05T14:35:58;5.00;95.60
12841;DHT22;6487;48.626;12.486;2023-03-05T14:38:29;5.10;95.40
12841;DHT22;6487;48.626;12.486;2023-03-05T14:41:18;4.90;95.40
12841;DHT22;6487;48.626;12.486;2023-03-05T14:43:55;5.00;95.50
12841;DHT22;6487;48.626;12.486;2023-03-05T14:46:24;4.50;95.70
12841;DHT22;6487;48.626;12.486;2023-03-05T14:48:53;4.60;95.90
12841;DHT22;6487;48.626;12.486;2023-03-05T14:51:23;4.60;95.90
12841;DHT22;6487;48.626;12.486;2023-03-05T14:53:52;4.70;96.20
12841;DHT22;6487;48.626;12.486;2023-03-05T14:56:23;4.70;96.40
12841;DHT22;6487;48.626;12.486;2023-03-05T14:58:53;4.80;96.50
12841;DHT22;6487;48.626;12.486;2023-03-05T15:01:23;4.80;96.50
12841;DHT22;6487;48.626;12.486;2023-03-05T15:03:53;4.80;96.30
12841;DHT22;6487;48.626;12.486;2023-03-05T15:06:26;4.80;96.20
12841;DHT22;6487;48.626;12.486;2023-03-05T15:08:57;4.70;96.00
12841;DHT22;6487;48.626;12.486;2023-03-05T15:11:25;4.70;96.40
12841;DHT22;6487;48.626;12.486;2023-03-05T15:13:54;4.70;96.70
12841;DHT22;6487;48.626;12.486;2023-03-05T15:16:22;4.60;96.60
12841;DHT22;6487;48.626;12.486;2023-03-05T15:18:52;4.70;96.70
12841;DHT22;6487;48.626;12.486;2023-03-05T15:21:20;4.70;96.80
12841;DHT22;6487;48.626;12.486;2023-03-05T15:23:49;4.80;96.80
12841;DHT22;6487;48.626;12.486;2023-03-05T15:26:17;4.60;96.40
12841;DHT22;6487;48.626;12.486;2023-03-05T15:28:47;4.70;96.70
12841;DHT22;6487;48.626;12.486;2023-03-05T15:31:16;4.60;96.70
12841;DHT22;6487;48.626;12.486;2023-03-05T15:33:44;4.60;96.70
12841;DHT22;6487;48.626;12.486;2023-03-05T15:36:14;4.50;96.00
12841;DHT22;6487;48.626;12.486;2023-03-05T15:38:42;4.40;96.00
12841;DHT22;6487;48.626;12.486;2023-03-05T15:41:12;4.30;95.70
12841;DHT22;6487;48.626;12.486;2023-03-05T15:43:40;4.20;95.10
12841;DHT22;6487;48.626;12.486;2023-03-05T15:46:09;4.10;94.40
12841;DHT22;6487;48.626;12.486;2023-03-05T15:48:37;4.10;94.00
12841;DHT22;6487;48.626;12.486;2023-03-05T15:51:06;4.20;94.20
12841;DHT22;6487;48.626;12.486;2023-03-05T15:53:36;4.10;94.10
12841;DHT22;6487;48.626;12.486;2023-03-05T15:56:05;4.00;94.00
12841;DHT22;6487;48.626;12.486;2023-03-05T15:58:34;4.10;93.70
12841;DHT22;6487;48.626;12.486;2023-03-05T16:01:02;4.10;93.90
12841;DHT22;6487;48.626;12.486;2023-03-05T16:03:30;4.20;94.20
12841;DHT22;6487;48.626;12.486;2023-03-05T16:05:59;4.10;93.80
12841;DHT22;6487;48.626;12.486;2023-03-05T16:08:27;4.10;93.80
12841;DHT22;6487;48.626;12.486;2023-03-05T16:10:59;4.10;93.80
12841;DHT22;6487;48.626;12.486;2023-03-05T16:13:29;4.10;94.10
12841;DHT22;6487;48.626;12.486;2023-03-05T16:15:58;4.10;94.10
12841;DHT22;6487;48.626;12.486;2023-03-05T16:18:29;4.00;94.30
12841;DHT22;6487;48.626;12.486;2023-03-05T16:20:58;4.10;94.10
12841;DHT22;6487;48.626;12.486;2023-03-05T16:23:27;4.10;94.50
12841;DHT22;6487;48.626;12.486;2023-03-05T16:25:57;4.30;94.50
12841;DHT22;6487;48.626;12.486;2023-03-05T16:28:25;4.20;94.70